Time;durP1;ratioP1;P1;durP2;ratioP2;P2;SDS_P1;SDS_P2;PMS_P1;PMS_P2;Temp;Humidity;BMP_temperature;BMP_pressure;BME280_temperature;BME280_humidity;BME280_pressure;Samples;Min_cycle;Max_cycle;Signal;HPM_P1;HPM_P2
2022/05/01 00:01:33;;;;;;;17.00;13.63;;;;;;;;;;4961604;28;20248;-36
2022/05/01 00:03:59;;;;;;;16.53;12.47;;;;;;;;;;4966490;28;20296;-36
2022/05/01 00:06:25;;;;;;;17.13;13.37;;;;;;;;;;4960613;28;20178;-36
2022/05/01 00:08:52;;;;;;;16.87;13.30;;;;;;;;;;4960464;28;20898;-36
2022/05/01 00:11:18;;;;;;;17.40;13.73;;;;;;;;;;4963660;28;20181;-36
2022/05/01 00:13:45;;;;;;;15.07;12.13;;;;;;;;;;4962337;28;20174;-36
2022/05/01 00:16:11;;;;;;;16.67;13.37;;;;;;;;;;4965425;28;20288;-36
2022/05/01 00:18:37;;;;;;;16.33;14.07;;;;;;;;;;4962591;28;20178;-36
2022/05/01 00:21:04;;;;;;;17.90;14.40;;;;;;;;;;4959673;28;20173;-36
2022/05/01 00:23:30;;;;;;;20.43;14.33;;;;;;;;;;4960095;28;20174;-36
2022/05/01 00:25:56;;;;;;;18.17;14.50;;;;;;;;;;4958635;28;20286;-36
2022/05/01 00:28:22;;;;;;;18.00;15.20;;;;;;;;;;4960441;28;21022;-36
2022/05/01 00:30:48;;;;;;;17.97;14.70;;;;;;;;;;4963574;28;20184;-36
2022/05/01 00:38:44;;;;;;;18.30;15.60;;;;;;;;;;4964136;28;20209;-35
2022/05/01 00:41:14;;;;;;;22.27;15.90;;;;;;;;;;4962117;28;20942;-36
2022/05/01 00:43:59;;;;;;;18.33;16.00;;;;;;;;;;4959850;28;20210;-36
2022/05/01 00:46:25;;;;;;;19.20;15.43;;;;;;;;;;4961713;28;20181;-36
2022/05/01 00:48:52;;;;;;;16.70;14.37;;;;;;;;;;4961559;28;20728;-36
2022/05/01 00:51:22;;;;;;;23.47;15.97;;;;;;;;;;4959901;28;20178;-36
2022/05/01 00:53:51;;;;;;;19.93;16.30;;;;;;;;;;4961768;28;20209;-36
2022/05/01 00:56:18;;;;;;;26.13;16.43;;;;;;;;;;4962629;28;20170;-36
2022/05/01 00:58:45;;;;;;;20.00;16.67;;;;;;;;;;4961845;28;20184;-36
2022/05/01 01:01:12;;;;;;;19.50;16.30;;;;;;;;;;4958620;28;20213;-36
2022/05/01 01:03:38;;;;;;;21.70;17.90;;;;;;;;;;4958956;28;20192;-36
2022/05/01 01:06:04;;;;;;;20.97;17.03;;;;;;;;;;4960351;28;20259;-36
2022/05/01 01:08:30;;;;;;;24.83;17.60;;;;;;;;;;4957723;28;20253;-36
2022/05/01 01:10:56;;;;;;;20.50;16.90;;;;;;;;;;4960176;28;20240;-36
2022/05/01 01:13:26;;;;;;;20.50;17.17;;;;;;;;;;4991438;28;20209;-36
2022/05/01 01:15:56;;;;;;;18.47;15.57;;;;;;;;;;4962573;28;20299;-36
2022/05/01 01:18:23;;;;;;;18.57;16.57;;;;;;;;;;4958823;28;20205;-36
2022/05/01 01:20:49;;;;;;;20.13;15.20;;;;;;;;;;4960278;28;21062;-36
2022/05/01 01:23:15;;;;;;;18.07;14.80;;;;;;;;;;4962298;28;20184;-35
2022/05/01 01:25:41;;;;;;;20.87;15.33;;;;;;;;;;4958517;28;20188;-36
2022/05/01 01:28:08;;;;;;;18.07;14.80;;;;;;;;;;4957418;28;20201;-35
2022/05/01 01:33:20;;;;;;;19.50;14.10;;;;;;;;;;4960068;28;20367;-35
2022/05/01 01:35:49;;;;;;;15.93;13.87;;;;;;;;;;4958440;28;20976;-35
2022/05/01 01:38:16;;;;;;;16.70;13.83;;;;;;;;;;4960663;28;21278;-36
2022/05/01 01:40:45;;;;;;;19.87;14.50;;;;;;;;;;4962463;28;20205;-35
2022/05/01 01:43:12;;;;;;;18.77;15.23;;;;;;;;;;4958427;28;20177;-36
2022/05/01 01:45:38;;;;;;;18.13;14.40;;;;;;;;;;4959818;28;20192;-36
2022/05/01 01:48:14;;;;;;;16.10;14.23;;;;;;;;;;4955514;28;20205;-36
2022/05/01 01:50:41;;;;;;;17.77;14.97;;;;;;;;;;4961159;28;20165;-36
2022/05/01 01:53:08;;;;;;;17.73;14.60;;;;;;;;;;4958707;28;21034;-35
2022/05/01 01:55:38;;;;;;;17.43;15.17;;;;;;;;;;4958068;28;20181;-36
2022/05/01 01:58:05;;;;;;;17.37;14.20;;;;;;;;;;4960167;28;20178;-35
2022/05/01 02:00:32;;;;;;;19.10;15.47;;;;;;;;;;4958823;28;20174;-36
2022/05/01 02:03:03;;;;;;;18.93;15.70;;;;;;;;;;4958664;28;21086;-36
2022/05/01 02:05:29;;;;;;;17.80;14.97;;;;;;;;;;4963537;28;20179;-36
2022/05/01 02:07:55;;;;;;;18.77;16.77;;;;;;;;;;4960235;28;21245;-36
2022/05/01 02:10:22;;;;;;;20.97;15.17;;;;;;;;;;4960403;28;20904;-36
2022/05/01 02:12:48;;;;;;;17.83;15.80;;;;;;;;;;4959620;28;20189;-36
2022/05/01 02:15:15;;;;;;;19.43;15.13;;;;;;;;;;4963474;28;20177;-36
2022/05/01 02:17:41;;;;;;;20.23;16.17;;;;;;;;;;4959266;28;20235;-36
2022/05/01 02:20:08;;;;;;;19.23;15.77;;;;;;;;;;4957915;28;20236;-35
2022/05/01 02:22:34;;;;;;;18.70;15.93;;;;;;;;;;4958079;28;20177;-35
2022/05/01 02:25:01;;;;;;;19.33;15.20;;;;;;;;;;4963350;28;20887;-36
2022/05/01 02:27:27;;;;;;;17.77;15.57;;;;;;;;;;4956973;28;20233;-36
2022/05/01 02:29:53;;;;;;;15.57;13.87;;;;;;;;;;4955578;28;20174;-36
2022/05/01 02:32:19;;;;;;;20.97;14.97;;;;;;;;;;4962418;28;20170;-36
2022/05/01 02:34:45;;;;;;;20.57;15.67;;;;;;;;;;4957728;28;20256;-36
2022/05/01 02:37:11;;;;;;;18.50;16.50;;;;;;;;;;4958450;28;20212;-36
2022/05/01 02:39:39;;;;;;;21.23;16.60;;;;;;;;;;4957505;28;20197;-36
2022/05/01 02:42:05;;;;;;;21.63;17.47;;;;;;;;;;4959971;28;20717;-35
2022/05/01 02:44:31;;;;;;;19.73;17.00;;;;;;;;;;4960532;28;20286;-36
2022/05/01 02:46:57;;;;;;;21.70;18.73;;;;;;;;;;4959772;28;20177;-36
2022/05/01 02:49:24;;;;;;;22.87;18.00;;;;;;;;;;4956154;28;20569;-36
2022/05/01 02:51:52;;;;;;;20.00;17.90;;;;;;;;;;4958236;28;20173;-35
2022/05/01 02:54:18;;;;;;;25.00;19.23;;;;;;;;;;4958788;28;20199;-35
2022/05/01 02:56:45;;;;;;;22.37;19.17;;;;;;;;;;4954833;28;20169;-36
2022/05/01 02:59:11;;;;;;;23.47;17.53;;;;;;;;;;4959380;28;20929;-36
2022/05/01 03:01:37;;;;;;;25.10;20.40;;;;;;;;;;4961390;28;20182;-35
2022/05/01 03:04:04;;;;;;;21.17;17.97;;;;;;;;;;4960731;28;20632;-36
2022/05/01 03:06:30;;;;;;;22.80;18.90;;;;;;;;;;4959175;28;21191;-36
2022/05/01 03:08:56;;;;;;;21.37;18.73;;;;;;;;;;4961161;28;20193;-36
2022/05/01 03:11:22;;;;;;;23.47;19.80;;;;;;;;;;4961088;28;20174;-36
2022/05/01 03:13:48;;;;;;;23.73;18.30;;;;;;;;;;4956457;28;20192;-36
2022/05/01 03:16:15;;;;;;;25.13;19.50;;;;;;;;;;4957627;28;21853;-36
2022/05/01 03:24:11;;;;;;;23.97;20.03;;;;;;;;;;4963722;28;21180;-36
2022/05/01 03:26:38;;;;;;;26.13;21.57;;;;;;;;;;4961076;28;20182;-36
2022/05/01 03:29:04;;;;;;;23.53;20.30;;;;;;;;;;4967575;28;20205;-36
2022/05/01 03:31:30;;;;;;;24.63;20.13;;;;;;;;;;4965224;28;20200;-36
2022/05/01 03:33:56;;;;;;;25.47;20.40;;;;;;;;;;4961475;28;20182;-36
2022/05/01 03:36:22;;;;;;;22.83;19.67;;;;;;;;;;4963966;28;20201;-35
2022/05/01 03:38:48;;;;;;;25.00;20.87;;;;;;;;;;4966779;28;20200;-36
2022/05/01 03:41:15;;;;;;;23.50;20.13;;;;;;;;;;4962879;28;20228;-36
2022/05/01 03:43:42;;;;;;;27.47;21.07;;;;;;;;;;4960899;28;20188;-36
2022/05/01 03:46:08;;;;;;;23.30;20.57;;;;;;;;;;4963558;28;20316;-36
2022/05/01 03:48:34;;;;;;;23.33;20.50;;;;;;;;;;4961894;28;20213;-35
2022/05/01 03:51:01;;;;;;;22.40;19.33;;;;;;;;;;4981593;28;20173;-35
2022/05/01 03:53:27;;;;;;;22.83;19.00;;;;;;;;;;4964824;28;20177;-36
2022/05/01 03:55:53;;;;;;;24.67;20.00;;;;;;;;;;4967082;28;20217;-36
2022/05/01 03:58:20;;;;;;;23.93;19.83;;;;;;;;;;4961543;28;20182;-35
2022/05/01 04:00:47;;;;;;;23.77;19.40;;;;;;;;;;4961466;28;20192;-36
2022/05/01 04:03:17;;;;;;;21.73;18.77;;;;;;;;;;4964768;28;20877;-36
2022/05/01 04:05:43;;;;;;;22.40;19.97;;;;;;;;;;4959703;28;20177;-35
2022/05/01 04:08:09;;;;;;;21.80;19.50;;;;;;;;;;4960469;28;20236;-36
2022/05/01 04:10:41;;;;;;;23.10;20.60;;;;;;;;;;4964179;28;20178;-35
2022/05/01 04:13:07;;;;;;;29.97;23.83;;;;;;;;;;4962468;28;21062;-36
2022/05/01 04:15:33;;;;;;;27.43;23.27;;;;;;;;;;4958644;28;20260;-35
2022/05/01 04:18:02;;;;;;;29.10;23.20;;;;;;;;;;4962498;28;20178;-35
2022/05/01 04:20:29;;;;;;;29.43;25.60;;;;;;;;;;4964280;28;20620;-35
2022/05/01 04:22:56;;;;;;;34.00;25.60;;;;;;;;;;4958624;28;20178;-36
2022/05/01 04:25:22;;;;;;;34.13;28.70;;;;;;;;;;4957693;28;20938;-36
2022/05/01 04:27:49;;;;;;;31.40;26.53;;;;;;;;;;4960577;28;21206;-35
2022/05/01 04:30:16;;;;;;;29.57;26.37;;;;;;;;;;4964839;28;20181;-35
2022/05/01 04:32:51;;;;;;;31.70;27.33;;;;;;;;;;4965166;28;20181;-36
2022/05/01 04:35:23;;;;;;;32.87;28.07;;;;;;;;;;4964995;28;20680;-35
2022/05/01 04:37:49;;;;;;;31.87;27.30;;;;;;;;;;4959613;28;20177;-35
2022/05/01 04:40:15;;;;;;;32.93;29.07;;;;;;;;;;4961809;28;20945;-35
2022/05/01 04:42:42;;;;;;;35.70;29.90;;;;;;;;;;4960818;28;20189;-35
2022/05/01 04:45:10;;;;;;;31.13;27.47;;;;;;;;;;4960441;28;21191;-36
2022/05/01 04:47:36;;;;;;;31.87;27.53;;;;;;;;;;4962009;28;20205;-36
2022/05/01 04:50:02;;;;;;;35.03;30.40;;;;;;;;;;4962190;28;20165;-35
2022/05/01 04:52:28;;;;;;;36.30;31.23;;;;;;;;;;4958527;28;20181;-35
2022/05/01 04:54:54;;;;;;;35.10;29.07;;;;;;;;;;4961513;28;20177;-35
2022/05/01 04:57:20;;;;;;;31.23;27.50;;;;;;;;;;4960821;28;20181;-35
2022/05/01 04:59:46;;;;;;;31.27;27.47;;;;;;;;;;4960957;28;20248;-35
2022/05/01 05:02:12;;;;;;;28.90;25.80;;;;;;;;;;4960358;28;20265;-35
2022/05/01 05:04:38;;;;;;;30.13;26.00;;;;;;;;;;4961481;28;20893;-35
2022/05/01 05:07:04;;;;;;;33.83;27.73;;;;;;;;;;4960632;28;20186;-35
2022/05/01 05:12:15;;;;;;;30.57;26.33;;;;;;;;;;4964929;28;20173;-35
2022/05/01 05:14:42;;;;;;;32.70;28.07;;;;;;;;;;4959958;28;21154;-35
2022/05/01 05:17:09;;;;;;;33.37;27.93;;;;;;;;;;4961664;28;20173;-35
2022/05/01 05:19:36;;;;;;;30.90;26.57;;;;;;;;;;4963773;28;20572;-35
2022/05/01 05:22:03;;;;;;;29.57;26.47;;;;;;;;;;4959449;28;20173;-35
2022/05/01 05:24:29;;;;;;;35.53;29.50;;;;;;;;;;4959769;28;20170;-35
2022/05/01 05:26:56;;;;;;;32.77;28.23;;;;;;;;;;4963863;28;20178;-35
2022/05/01 05:29:22;;;;;;;35.50;29.40;;;;;;;;;;4964015;28;20279;-35
2022/05/01 05:31:48;;;;;;;32.60;25.97;;;;;;;;;;4963421;28;20177;-35
2022/05/01 05:34:14;;;;;;;29.83;24.47;;;;;;;;;;4961931;28;20170;-35
2022/05/01 05:36:40;;;;;;;29.67;24.87;;;;;;;;;;4961683;28;20186;-35
2022/05/01 05:39:07;;;;;;;25.57;22.27;;;;;;;;;;4961353;28;20257;-35
2022/05/01 05:41:33;;;;;;;28.37;22.10;;;;;;;;;;4961989;28;20201;-35
2022/05/01 05:43:59;;;;;;;22.43;19.90;;;;;;;;;;4958124;28;20174;-35
2022/05/01 05:46:25;;;;;;;23.23;18.77;;;;;;;;;;4959588;28;20273;-35
2022/05/01 05:48:51;;;;;;;23.10;18.17;;;;;;;;;;4956772;28;21273;-35
2022/05/01 05:51:17;;;;;;;24.77;18.80;;;;;;;;;;4965346;28;20296;-35
2022/05/01 05:53:43;;;;;;;20.67;16.67;;;;;;;;;;4963635;28;20185;-35
2022/05/01 05:56:09;;;;;;;21.30;18.03;;;;;;;;;;4963139;28;20189;-36
2022/05/01 05:58:35;;;;;;;20.10;17.50;;;;;;;;;;4962183;28;21031;-35
2022/05/01 06:01:02;;;;;;;23.20;18.10;;;;;;;;;;4959702;28;20228;-35
2022/05/01 06:03:28;;;;;;;23.77;18.70;;;;;;;;;;4962534;28;21422;-35
2022/05/01 06:05:54;;;;;;;22.40;18.67;;;;;;;;;;4962141;28;20375;-36
2022/05/01 06:08:20;;;;;;;23.33;19.40;;;;;;;;;;4960361;28;20214;-35
2022/05/01 06:10:46;;;;;;;24.80;18.70;;;;;;;;;;4964747;28;21199;-36
2022/05/01 06:13:12;;;;;;;26.23;19.63;;;;;;;;;;4964595;28;20173;-36
2022/05/01 06:15:38;;;;;;;25.63;19.30;;;;;;;;;;4963732;28;20184;-35
2022/05/01 06:18:04;;;;;;;27.23;19.87;;;;;;;;;;4960278;28;20324;-36
2022/05/01 06:20:31;;;;;;;24.30;19.37;;;;;;;;;;4964131;28;20177;-36
2022/05/01 06:22:57;;;;;;;25.33;19.17;;;;;;;;;;4964543;28;20183;-35
2022/05/01 06:25:23;;;;;;;24.63;19.57;;;;;;;;;;4962386;28;20189;-36
2022/05/01 06:27:49;;;;;;;26.70;19.77;;;;;;;;;;4965856;28;20204;-36
2022/05/01 06:30:15;;;;;;;24.13;20.33;;;;;;;;;;4963108;28;21067;-36
2022/05/01 06:32:43;;;;;;;24.33;19.90;;;;;;;;;;4962549;28;20270;-36
2022/05/01 06:35:09;;;;;;;23.30;20.17;;;;;;;;;;4961515;28;20276;-36
2022/05/01 06:37:36;;;;;;;27.30;22.33;;;;;;;;;;4961860;28;20186;-35
2022/05/01 06:40:03;;;;;;;26.83;19.80;;;;;;;;;;4960782;28;20251;-36
2022/05/01 06:42:30;;;;;;;24.80;19.33;;;;;;;;;;4961768;28;20189;-36
2022/05/01 06:44:56;;;;;;;26.90;20.57;;;;;;;;;;4962864;28;20184;-36
2022/05/01 06:47:22;;;;;;;25.97;19.57;;;;;;;;;;4961269;28;20181;-36
2022/05/01 06:49:48;;;;;;;20.80;18.50;;;;;;;;;;4960375;28;20181;-36
2022/05/01 06:52:18;;;;;;;21.73;18.40;;;;;;;;;;4965594;28;20188;-36
2022/05/01 06:54:44;;;;;;;20.07;17.37;;;;;;;;;;4964094;28;20162;-36
2022/05/01 06:57:10;;;;;;;20.83;16.87;;;;;;;;;;4964833;28;20268;-36
2022/05/01 06:59:36;;;;;;;17.97;15.53;;;;;;;;;;4967475;28;20170;-36
2022/05/01 07:02:02;;;;;;;23.60;15.37;;;;;;;;;;4965467;28;20197;-36
2022/05/01 07:04:29;;;;;;;19.23;15.73;;;;;;;;;;4964612;28;20174;-36
2022/05/01 07:06:55;;;;;;;18.53;14.63;;;;;;;;;;4968501;28;20182;-36
2022/05/01 07:09:21;;;;;;;18.23;14.07;;;;;;;;;;4965326;28;21184;-36
2022/05/01 07:11:47;;;;;;;16.40;14.60;;;;;;;;;;4964906;28;20174;-36
2022/05/01 07:14:13;;;;;;;20.40;14.40;;;;;;;;;;4967401;28;20185;-36
2022/05/01 07:16:39;;;;;;;15.90;14.03;;;;;;;;;;4962802;28;20283;-36
2022/05/01 07:19:06;;;;;;;15.93;12.97;;;;;;;;;;4965629;28;20174;-36
2022/05/01 07:21:32;;;;;;;14.97;12.10;;;;;;;;;;4964959;28;20174;-36
2022/05/01 07:23:58;;;;;;;14.27;11.90;;;;;;;;;;4963033;28;20296;-36
2022/05/01 07:26:26;;;;;;;13.73;11.67;;;;;;;;;;4964936;28;20177;-36
2022/05/01 07:28:53;;;;;;;14.40;11.43;;;;;;;;;;4962231;28;20197;-36
2022/05/01 07:31:19;;;;;;;13.07;11.20;;;;;;;;;;4963401;28;20219;-36
2022/05/01 07:33:45;;;;;;;16.40;10.43;;;;;;;;;;4966969;28;20209;-37
2022/05/01 07:36:11;;;;;;;13.13;11.13;;;;;;;;;;4964839;28;20192;-37
2022/05/01 07:38:37;;;;;;;13.00;10.80;;;;;;;;;;4963511;28;20192;-37
2022/05/01 07:41:03;;;;;;;13.57;10.73;;;;;;;;;;4964030;28;20178;-36
2022/05/01 07:43:29;;;;;;;11.83;10.63;;;;;;;;;;4967170;28;21017;-37
2022/05/01 07:45:56;;;;;;;12.63;10.23;;;;;;;;;;4966260;28;20975;-37
2022/05/01 07:48:22;;;;;;;14.63;10.50;;;;;;;;;;4963016;28;20197;-37
2022/05/01 07:50:48;;;;;;;13.33;9.53;;;;;;;;;;4965789;28;20173;-36
2022/05/01 07:53:16;;;;;;;9.83;8.80;;;;;;;;;;4968139;28;20392;-36
2022/05/01 07:55:42;;;;;;;10.67;8.37;;;;;;;;;;4963477;28;20181;-37
2022/05/01 07:58:08;;;;;;;12.37;8.17;;;;;;;;;;4964971;28;20178;-37
2022/05/01 08:00:34;;;;;;;12.10;8.70;;;;;;;;;;4963984;28;20262;-36
2022/05/01 08:05:45;;;;;;;11.67;8.57;;;;;;;;;;4965513;28;20209;-36
2022/05/01 08:08:11;;;;;;;12.03;8.63;;;;;;;;;;4959762;28;20247;-37
2022/05/01 08:10:38;;;;;;;10.43;8.37;;;;;;;;;;4959984;28;20178;-36
2022/05/01 08:13:04;;;;;;;10.00;8.47;;;;;;;;;;4965107;28;20205;-37
2022/05/01 08:15:30;;;;;;;9.50;8.33;;;;;;;;;;4963579;28;20883;-37
2022/05/01 08:21:05;;;;;;;9.17;8.17;;;;;;;;;;4958143;28;20252;-37
2022/05/01 08:23:30;;;;;;;11.90;8.57;;;;;;;;;;4962461;28;20228;-37
2022/05/01 08:26:02;;;;;;;10.23;8.90;;;;;;;;;;4963447;28;20277;-37
2022/05/01 08:28:29;;;;;;;8.70;7.50;;;;;;;;;;4963925;28;20213;-37
2022/05/01 08:30:55;;;;;;;10.17;8.23;;;;;;;;;;4963051;28;20181;-37
2022/05/01 08:33:21;;;;;;;11.47;8.87;;;;;;;;;;4961469;28;20173;-37
2022/05/01 08:35:47;;;;;;;10.87;9.13;;;;;;;;;;4966181;28;20291;-38
2022/05/01 08:38:13;;;;;;;10.10;8.50;;;;;;;;;;4961389;28;20185;-37
2022/05/01 08:40:40;;;;;;;11.20;8.47;;;;;;;;;;4961548;28;20181;-37
2022/05/01 08:43:06;;;;;;;12.37;8.93;;;;;;;;;;4964348;28;21198;-37
2022/05/01 08:45:42;;;;;;;10.80;8.83;;;;;;;;;;4966646;28;20836;-37
2022/05/01 08:48:20;;;;;;;11.40;8.73;;;;;;;;;;4963286;28;21179;-37
2022/05/01 08:50:47;;;;;;;12.90;8.37;;;;;;;;;;4964239;28;20169;-37
2022/05/01 08:53:14;;;;;;;9.23;8.33;;;;;;;;;;4964658;28;20181;-37
2022/05/01 08:55:41;;;;;;;11.33;8.60;;;;;;;;;;4961361;28;20181;-37
2022/05/01 08:58:08;;;;;;;10.57;8.50;;;;;;;;;;4962890;28;20232;-37
2022/05/01 09:00:34;;;;;;;11.10;9.10;;;;;;;;;;4964368;28;20181;-35
2022/05/01 09:03:03;;;;;;;13.43;9.80;;;;;;;;;;4963388;28;21037;-35
2022/05/01 09:05:29;;;;;;;12.20;9.17;;;;;;;;;;4963447;28;20208;-36
2022/05/01 09:07:56;;;;;;;11.83;9.17;;;;;;;;;;4954074;28;20193;-36
2022/05/01 09:10:26;;;;;;;11.53;9.20;;;;;;;;;;4964402;28;21040;-36
2022/05/01 09:12:53;;;;;;;10.87;8.73;;;;;;;;;;4964967;28;20181;-36
2022/05/01 09:15:29;;;;;;;11.13;8.83;;;;;;;;;;4963408;28;20177;-37
2022/05/01 09:18:05;;;;;;;11.77;8.63;;;;;;;;;;4962395;28;21117;-36
2022/05/01 09:20:32;;;;;;;12.57;7.90;;;;;;;;;;4967286;28;20212;-37
2022/05/01 09:22:59;;;;;;;12.23;8.30;;;;;;;;;;4968665;28;20201;-37
2022/05/01 09:25:28;;;;;;;10.43;8.10;;;;;;;;;;4962877;28;20197;-37
2022/05/01 09:28:01;;;;;;;10.97;8.67;;;;;;;;;;4958313;28;20229;-38
2022/05/01 09:30:35;;;;;;;9.87;8.27;;;;;;;;;;4960951;28;21111;-37
2022/05/01 09:33:02;;;;;;;9.87;8.37;;;;;;;;;;4958988;28;20940;-37
2022/05/01 09:35:29;;;;;;;10.70;7.93;;;;;;;;;;4963859;28;20178;-37
2022/05/01 09:38:28;;;;;;;10.63;7.80;;;;;;;;;;4964028;28;20193;-37
2022/05/01 09:40:55;;;;;;;9.53;7.17;;;;;;;;;;4920826;28;20182;-37
2022/05/01 09:43:34;;;;;;;10.27;8.00;;;;;;;;;;4961524;28;20304;-37
2022/05/01 09:46:17;;;;;;;10.17;7.60;;;;;;;;;;4964041;28;20256;-37
2022/05/01 09:48:44;;;;;;;14.10;7.77;;;;;;;;;;4963688;28;21052;-37
2022/05/01 09:51:29;;;;;;;12.60;7.73;;;;;;;;;;4962999;28;21110;-37
2022/05/01 09:53:56;;;;;;;10.90;8.10;;;;;;;;;;4961631;28;20274;-37
2022/05/01 09:56:22;;;;;;;10.70;7.10;;;;;;;;;;4961376;28;21178;-36
2022/05/01 09:58:57;;;;;;;11.67;6.87;;;;;;;;;;4961366;28;20794;-38
2022/05/01 10:01:23;;;;;;;7.93;6.70;;;;;;;;;;4960637;28;20166;-37
2022/05/01 10:03:52;;;;;;;8.17;6.63;;;;;;;;;;4963604;28;20201;-37
2022/05/01 10:06:19;;;;;;;8.70;5.70;;;;;;;;;;4963228;28;20182;-37
2022/05/01 10:08:45;;;;;;;9.67;6.20;;;;;;;;;;4960879;28;20201;-37
2022/05/01 10:11:17;;;;;;;8.13;6.03;;;;;;;;;;4961579;28;20204;-37
2022/05/01 10:13:44;;;;;;;6.97;5.73;;;;;;;;;;4963420;28;20569;-37
2022/05/01 10:16:15;;;;;;;7.20;5.37;;;;;;;;;;4957305;28;20290;-37
2022/05/01 10:18:41;;;;;;;8.17;5.70;;;;;;;;;;4957846;28;20217;-37
2022/05/01 10:21:07;;;;;;;7.40;6.00;;;;;;;;;;4961484;28;20884;-37
2022/05/01 10:23:35;;;;;;;9.43;5.83;;;;;;;;;;4958163;28;20260;-37
2022/05/01 10:26:01;;;;;;;10.10;6.70;;;;;;;;;;4962081;28;21030;-37
2022/05/01 10:28:27;;;;;;;7.60;6.13;;;;;;;;;;4959610;28;21068;-37
2022/05/01 10:34:23;;;;;;;9.33;7.20;;;;;;;;;;4962963;28;20208;-37
2022/05/01 10:37:05;;;;;;;6.37;4.37;;;;;;;;;;4884514;29;20192;-37
2022/05/01 10:39:35;;;;;;;7.40;4.57;;;;;;;;;;4951641;28;20187;-37
2022/05/01 10:42:01;;;;;;;6.87;5.20;;;;;;;;;;4961629;28;20177;-37
2022/05/01 10:44:30;;;;;;;8.20;5.33;;;;;;;;;;4964425;28;21055;-37
2022/05/01 10:47:04;;;;;;;6.97;5.50;;;;;;;;;;4961144;28;20204;-39
2022/05/01 10:49:34;;;;;;;5.93;5.27;;;;;;;;;;4958464;28;20197;-37
2022/05/01 10:52:29;;;;;;;82.43;56.80;;;;;;;;;;4959653;28;21131;-37
2022/05/01 10:55:00;;;;;;;6.37;5.70;;;;;;;;;;4956772;28;21089;-37
2022/05/01 10:57:26;;;;;;;7.77;4.77;;;;;;;;;;4956749;28;20169;-37
2022/05/01 11:00:05;;;;;;;8.43;5.33;;;;;;;;;;4960534;28;20173;-37
2022/05/01 11:02:51;;;;;;;7.43;5.40;;;;;;;;;;4961557;28;20176;-36
2022/05/01 11:05:36;;;;;;;9.03;5.40;;;;;;;;;;4962933;28;20878;-36
2022/05/01 11:08:03;;;;;;;7.43;5.63;;;;;;;;;;4955753;28;20194;-36
2022/05/01 11:10:30;;;;;;;8.87;5.33;;;;;;;;;;4959290;28;20197;-36
2022/05/01 11:12:56;;;;;;;7.83;5.53;;;;;;;;;;4958691;28;21068;-36
2022/05/01 11:15:29;;;;;;;6.60;4.73;;;;;;;;;;4959070;28;20178;-36
2022/05/01 11:17:56;;;;;;;6.00;4.93;;;;;;;;;;4960090;28;20179;-37
2022/05/01 11:20:22;;;;;;;6.43;5.13;;;;;;;;;;4956706;28;20271;-36
2022/05/01 11:22:48;;;;;;;8.07;4.97;;;;;;;;;;4956536;28;20181;-36
2022/05/01 11:25:18;;;;;;;5.77;4.53;;;;;;;;;;4959278;28;20173;-37
2022/05/01 11:27:51;;;;;;;7.23;4.73;;;;;;;;;;4952199;28;20217;-37
2022/05/01 11:30:32;;;;;;;6.63;5.07;;;;;;;;;;4960123;28;20239;-37
2022/05/01 11:33:12;;;;;;;11.30;7.47;;;;;;;;;;4957271;28;20176;-37
2022/05/01 11:35:57;;;;;;;5.13;4.23;;;;;;;;;;4959894;28;20173;-37
2022/05/01 11:38:24;;;;;;;5.27;4.77;;;;;;;;;;4958366;28;20308;-37
2022/05/01 11:40:54;;;;;;;6.70;4.37;;;;;;;;;;4958372;28;20182;-36
2022/05/01 11:43:21;;;;;;;8.23;5.10;;;;;;;;;;4963068;28;20185;-36
2022/05/01 11:45:48;;;;;;;7.40;5.23;;;;;;;;;;4961303;28;20178;-36
2022/05/01 11:48:18;;;;;;;5.07;4.30;;;;;;;;;;4961893;28;20338;-36
2022/05/01 11:50:45;;;;;;;4.47;3.93;;;;;;;;;;4962272;28;20276;-36
2022/05/01 11:53:18;;;;;;;6.73;4.50;;;;;;;;;;4960489;28;20217;-36
2022/05/01 12:04:22;;;;;;;5.63;4.63;;;;;;;;;;4958960;28;20188;-36
2022/05/01 12:06:48;;;;;;;6.63;4.67;;;;;;;;;;4959605;28;20738;-36
2022/05/01 12:09:18;;;;;;;7.80;4.97;;;;;;;;;;4962608;28;20232;-36
2022/05/01 12:11:47;;;;;;;8.47;4.87;;;;;;;;;;4961394;28;20558;-36
2022/05/01 12:14:13;;;;;;;7.00;4.97;;;;;;;;;;4961401;28;20177;-36
2022/05/01 12:16:41;;;;;;;7.00;5.37;;;;;;;;;;4961146;28;20965;-36
2022/05/01 12:19:07;;;;;;;6.53;5.03;;;;;;;;;;4961881;28;20177;-36
2022/05/01 12:21:35;;;;;;;5.97;4.60;;;;;;;;;;4964048;28;20188;-36
2022/05/01 12:24:05;;;;;;;6.00;5.03;;;;;;;;;;4960633;28;20185;-36
2022/05/01 12:26:32;;;;;;;6.27;4.97;;;;;;;;;;4962666;28;20281;-36
2022/05/01 12:28:58;;;;;;;6.60;4.53;;;;;;;;;;4961302;28;20198;-36
2022/05/01 12:31:24;;;;;;;6.47;4.43;;;;;;;;;;4963093;28;21067;-36
2022/05/01 12:33:53;;;;;;;5.13;4.30;;;;;;;;;;4965795;28;20210;-37
2022/05/01 12:36:25;;;;;;;5.57;4.30;;;;;;;;;;4961581;28;20252;-36
2022/05/01 12:39:01;;;;;;;7.47;4.30;;;;;;;;;;4963120;28;20168;-37
2022/05/01 12:44:12;;;;;;;7.03;4.70;;;;;;;;;;4961666;28;20200;-36
2022/05/01 12:46:39;;;;;;;5.83;4.70;;;;;;;;;;4962445;28;20178;-36
2022/05/01 12:49:05;;;;;;;6.33;4.10;;;;;;;;;;4963274;28;21141;-37
2022/05/01 12:51:41;;;;;;;5.77;3.87;;;;;;;;;;4960939;28;20201;-40
2022/05/01 12:54:17;;;;;;;6.20;4.50;;;;;;;;;;4960682;28;20174;-37
2022/05/01 12:56:43;;;;;;;6.27;4.60;;;;;;;;;;4958928;28;20188;-36
2022/05/01 12:59:27;;;;;;;7.23;3.77;;;;;;;;;;4964687;28;20228;-36
2022/05/01 13:01:55;;;;;;;5.60;3.33;;;;;;;;;;4960297;28;20185;-36
2022/05/01 13:04:24;;;;;;;6.33;3.27;;;;;;;;;;4961422;28;20177;-36
2022/05/01 13:06:51;;;;;;;5.07;3.50;;;;;;;;;;4962683;28;20263;-37
2022/05/01 13:09:17;;;;;;;5.77;3.73;;;;;;;;;;4959094;28;20442;-37
2022/05/01 13:12:18;;;;;;;5.30;4.17;;;;;;;;;;4960798;28;20174;-36
2022/05/01 13:14:55;;;;;;;4.63;4.23;;;;;;;;;;4919503;28;20175;-37
2022/05/01 13:17:21;;;;;;;5.00;3.90;;;;;;;;;;4956340;28;20197;-37
2022/05/01 13:19:47;;;;;;;6.43;3.73;;;;;;;;;;4959305;28;21033;-37
2022/05/01 13:22:14;;;;;;;5.80;3.50;;;;;;;;;;4956895;28;20460;-37
2022/05/01 13:24:42;;;;;;;4.30;3.70;;;;;;;;;;4957075;28;20269;-37
2022/05/01 13:27:09;;;;;;;5.60;3.83;;;;;;;;;;4959294;28;20169;-37
2022/05/01 13:29:37;;;;;;;4.67;3.37;;;;;;;;;;4955905;28;21160;-37
2022/05/01 13:32:05;;;;;;;5.30;3.97;;;;;;;;;;4958181;28;20182;-37
2022/05/01 13:34:31;;;;;;;5.60;3.90;;;;;;;;;;4962672;28;20180;-37
2022/05/01 13:37:00;;;;;;;5.37;4.07;;;;;;;;;;4960247;28;21015;-37
2022/05/01 13:45:00;;;;;;;4.20;2.70;;;;;;;;;;4966309;28;20309;-37
2022/05/01 13:47:26;;;;;;;5.57;3.23;;;;;;;;;;4957142;28;20177;-37
2022/05/01 13:49:53;;;;;;;5.27;3.40;;;;;;;;;;4958767;28;22446;-37
2022/05/01 13:52:19;;;;;;;5.27;3.37;;;;;;;;;;4957891;28;20170;-37
2022/05/01 13:54:46;;;;;;;5.27;4.13;;;;;;;;;;4962504;28;20181;-37
2022/05/01 13:57:13;;;;;;;5.07;4.33;;;;;;;;;;4946948;28;20217;-36
2022/05/01 13:59:39;;;;;;;5.63;3.70;;;;;;;;;;4957435;28;21615;-37
2022/05/01 14:02:06;;;;;;;19.83;4.80;;;;;;;;;;4959379;28;20188;-37
2022/05/01 14:04:32;;;;;;;12.57;4.63;;;;;;;;;;4960687;28;20185;-35
2022/05/01 14:06:58;;;;;;;7.63;4.30;;;;;;;;;;4965512;28;20181;-36
2022/05/01 14:09:25;;;;;;;11.60;5.20;;;;;;;;;;4950472;28;20986;-36
2022/05/01 14:11:52;;;;;;;13.10;5.20;;;;;;;;;;4958147;28;20185;-35
2022/05/01 14:14:18;;;;;;;9.30;5.30;;;;;;;;;;4957486;28;20175;-34
2022/05/01 14:16:44;;;;;;;7.93;4.80;;;;;;;;;;4962425;28;20749;-37
2022/05/01 14:19:12;;;;;;;10.70;5.30;;;;;;;;;;4963262;28;20194;-39
2022/05/01 14:21:41;;;;;;;9.10;5.30;;;;;;;;;;4961537;28;20339;-38
2022/05/01 14:24:08;;;;;;;10.23;5.10;;;;;;;;;;4960742;28;20258;-38
2022/05/01 14:26:35;;;;;;;6.80;4.93;;;;;;;;;;4959627;28;21040;-42
2022/05/01 14:29:04;;;;;;;7.37;4.77;;;;;;;;;;4960069;28;20260;-38
2022/05/01 14:31:35;;;;;;;5.30;4.40;;;;;;;;;;4960856;28;20181;-39
2022/05/01 14:34:08;;;;;;;9.40;5.07;;;;;;;;;;4962697;28;21089;-38
2022/05/01 14:36:36;;;;;;;11.20;5.77;;;;;;;;;;4962154;28;21007;-38
2022/05/01 14:39:07;;;;;;;5.87;4.67;;;;;;;;;;4960374;28;20186;-42
2022/05/01 14:41:35;;;;;;;9.30;5.17;;;;;;;;;;4959264;28;20178;-38
2022/05/01 14:44:05;;;;;;;7.77;5.00;;;;;;;;;;4961624;28;20532;-37
2022/05/01 14:46:40;;;;;;;8.13;5.27;;;;;;;;;;4988719;28;21579;-40
2022/05/01 14:49:18;;;;;;;10.43;5.97;;;;;;;;;;4957285;28;20391;-37
2022/05/01 14:51:46;;;;;;;6.27;5.67;;;;;;;;;;4961109;28;20216;-39
2022/05/01 14:54:15;;;;;;;9.53;5.90;;;;;;;;;;4962455;28;20186;-37
2022/05/01 14:56:41;;;;;;;8.43;5.43;;;;;;;;;;4962494;28;21283;-38
2022/05/01 15:07:26;;;;;;;8.07;6.83;;;;;;;;;;4966496;28;22566;-40
2022/05/01 15:09:54;;;;;;;8.23;6.57;;;;;;;;;;4963875;28;20229;-40
2022/05/01 15:12:20;;;;;;;7.07;6.37;;;;;;;;;;4960977;28;20399;-39
2022/05/01 15:14:47;;;;;;;6.97;5.87;;;;;;;;;;4962742;28;20181;-39
2022/05/01 15:17:17;;;;;;;7.17;6.43;;;;;;;;;;4968423;28;20181;-40
2022/05/01 15:19:50;;;;;;;9.10;6.40;;;;;;;;;;4969155;28;20188;-38
2022/05/01 15:22:22;;;;;;;7.20;6.50;;;;;;;;;;4967405;28;20178;-42
2022/05/01 15:24:55;;;;;;;6.53;5.80;;;;;;;;;;4967718;28;21216;-38